CheckWX is a tool to help pilots better visualize weather data.  It is not intended as a substitute for an official pre-flight weather briefing.

08:13:46 UTC

PANC TAF
Ted Stevens Anchorage International Airport
Anchorage, Alaska, USA
PANC 270540Z 2706/2812 02007KT P6SM FEW140 SCT200

Feb-27@
06:00 UTC

Feb-27 @ 06:00 UTC

Feb-28@
12:00 UTC

Feb-28 @ 12:00 UTC

PANC 270540Z 2706/2812 02007KT P6SM FEW140 SCT200
Wind
  • 020° at 7 KTS
Cloud Levels
  • Few at 14,000' AGL
  • Scattered at 20,000' AGL